createdAt,value
2022-09-07T00:00:28.970Z,9.42
2022-09-07T00:05:35.207Z,9.99
2022-09-07T00:10:41.857Z,9.61
2022-09-07T00:15:48.259Z,9.96
2022-09-07T00:20:54.811Z,13.07
2022-09-07T00:26:01.021Z,9.00
2022-09-07T00:31:07.176Z,9.79
2022-09-07T00:36:13.366Z,10.06
2022-09-07T00:41:19.689Z,11.40
2022-09-07T00:46:25.978Z,11.12
2022-09-07T00:51:32.080Z,8.68
2022-09-07T00:56:38.463Z,9.34
2022-09-07T01:01:44.870Z,10.37
2022-09-07T01:06:51.195Z,11.20
2022-09-07T01:11:57.411Z,10.92
2022-09-07T01:17:03.662Z,9.97
2022-09-07T01:22:10.117Z,10.43
2022-09-07T01:27:16.493Z,12.59
2022-09-07T01:32:22.609Z,10.77
2022-09-07T01:37:28.910Z,10.70
2022-09-07T01:42:35.049Z,10.43
2022-09-07T01:47:41.381Z,9.02
2022-09-07T01:52:47.522Z,10.49
2022-09-07T01:57:53.841Z,10.29
2022-09-07T02:03:00.042Z,14.11
2022-09-07T02:08:06.295Z,11.56
2022-09-07T02:13:12.440Z,11.94
2022-09-07T02:18:18.799Z,12.61
2022-09-07T02:23:25.033Z,11.62
2022-09-07T02:28:31.293Z,10.65
2022-09-07T02:33:37.462Z,10.20
2022-09-07T02:38:43.970Z,11.44
2022-09-07T02:43:50.090Z,9.36
2022-09-07T02:48:56.379Z,11.91
2022-09-07T02:54:02.736Z,10.90
2022-09-07T02:59:08.910Z,9.16
2022-09-07T03:04:15.068Z,8.33
2022-09-07T03:09:21.387Z,10.71
2022-09-07T03:14:27.475Z,8.58
2022-09-07T03:19:33.985Z,8.99
2022-09-07T03:24:40.315Z,9.33
2022-09-07T03:29:46.965Z,9.79
2022-09-07T03:34:53.076Z,10.58
2022-09-07T03:39:59.781Z,12.82
2022-09-07T03:45:06.029Z,10.96
2022-09-07T03:50:12.488Z,10.13
2022-09-07T03:55:18.630Z,11.55
2022-09-07T04:00:25.104Z,11.12
2022-09-07T04:05:31.306Z,12.27
2022-09-07T04:10:37.670Z,13.08
2022-09-07T04:15:43.886Z,13.20
2022-09-07T04:20:50.309Z,13.71
2022-09-07T04:25:56.832Z,14.20
2022-09-07T04:31:03.150Z,13.88
2022-09-07T04:36:09.333Z,13.51
2022-09-07T04:41:15.657Z,12.85
2022-09-07T04:46:22.089Z,13.33
2022-09-07T04:51:28.461Z,14.18
2022-09-07T04:56:34.597Z,13.92
2022-09-07T05:01:41.006Z,14.89
2022-09-07T05:06:47.104Z,14.70
2022-09-07T05:11:53.288Z,15.79
2022-09-07T05:16:59.456Z,14.06
2022-09-07T05:22:05.765Z,14.59
2022-09-07T05:27:11.972Z,15.48
2022-09-07T05:32:18.441Z,14.64
2022-09-07T05:37:24.667Z,15.74
2022-09-07T05:42:31.730Z,15.54
2022-09-07T05:48:52.705Z,17.17
2022-09-07T05:53:59.072Z,15.47
2022-09-07T05:59:05.204Z,15.57
2022-09-07T06:04:11.639Z,16.17
2022-09-07T06:09:17.784Z,19.41
2022-09-07T06:14:24.248Z,18.39
2022-09-07T06:19:30.500Z,20.94
2022-09-07T06:24:36.908Z,20.23
2022-09-07T06:29:43.076Z,20.45
2022-09-07T06:34:49.427Z,19.78
2022-09-07T06:39:55.886Z,20.90
2022-09-07T06:45:02.172Z,20.08
2022-09-07T06:50:08.407Z,21.86
2022-09-07T06:55:14.654Z,21.31
2022-09-07T07:00:20.782Z,24.40
2022-09-07T07:05:27.076Z,22.18
2022-09-07T07:10:33.181Z,22.37
2022-09-07T07:15:39.466Z,23.13
2022-09-07T07:20:45.573Z,23.84
2022-09-07T07:25:51.788Z,22.19
2022-09-07T07:30:58.096Z,20.41
2022-09-07T07:36:04.586Z,20.74
2022-09-07T07:46:17.501Z,18.44
2022-09-07T07:51:23.808Z,18.64
2022-09-07T07:56:30.032Z,18.36
2022-09-07T08:01:36.227Z,17.20
2022-09-07T08:06:42.310Z,18.82
2022-09-07T08:11:48.528Z,19.29
2022-09-07T08:16:54.784Z,18.07
2022-09-07T08:22:00.875Z,16.84
2022-09-07T08:27:07.141Z,16.37
2022-09-07T08:32:13.200Z,16.11
2022-09-07T08:37:19.384Z,13.96
2022-09-07T08:42:25.443Z,13.66
2022-09-07T08:47:31.601Z,12.99
2022-09-07T08:52:37.908Z,12.76
2022-09-07T08:57:44.004Z,12.38
2022-09-07T09:07:56.225Z,11.94
2022-09-07T09:13:02.301Z,10.89
2022-09-07T09:18:11.185Z,9.73
2022-09-07T09:23:14.236Z,10.43
2022-09-07T09:28:20.473Z,10.31
2022-09-07T09:33:26.540Z,8.24
2022-09-07T09:38:32.775Z,6.94
2022-09-07T09:43:39.536Z,7.83
2022-09-07T09:48:45.911Z,8.26
2022-09-07T09:53:52.119Z,6.38
2022-09-07T09:59:05.943Z,6.45
2022-09-07T10:04:06.329Z,6.83
2022-09-07T10:09:09.708Z,7.66
2022-09-07T10:14:15.920Z,6.36
2022-09-07T10:19:22.419Z,6.32
2022-09-07T10:24:28.779Z,7.66
2022-09-07T10:29:36.004Z,6.97
2022-09-07T10:34:41.218Z,6.26
2022-09-07T10:39:47.495Z,5.06
2022-09-07T10:41:00.235Z,6.54
2022-09-07T10:46:06.339Z,6.06
2022-09-07T10:51:21.410Z,5.75
2022-09-07T10:56:27.498Z,5.68
2022-09-07T11:01:33.678Z,6.23
2022-09-07T11:06:40.130Z,7.43
2022-09-07T11:12:02.765Z,5.91
2022-09-07T11:16:52.547Z,6.90
2022-09-07T11:21:59.256Z,6.77
2022-09-07T11:27:05.309Z,6.90
2022-09-07T11:32:11.537Z,9.35
2022-09-07T11:37:17.608Z,9.36
2022-09-07T11:42:44.141Z,8.54
2022-09-07T11:47:29.803Z,8.49
2022-09-07T11:52:36.048Z,9.47
2022-09-07T11:57:42.205Z,9.85
2022-09-07T12:02:59.281Z,8.87
2022-09-07T12:07:54.000Z,9.54
2022-09-07T12:13:00.133Z,10.55
2022-09-07T12:19:04.025Z,9.23
2022-09-07T12:24:10.285Z,9.46
2022-09-07T12:29:16.339Z,8.88
2022-09-07T12:34:22.553Z,8.90
2022-09-07T12:39:28.784Z,10.95
2022-09-07T12:44:34.917Z,11.52
2022-09-07T12:49:41.118Z,10.86
2022-09-07T12:54:55.784Z,10.36
2022-09-07T12:59:53.106Z,11.12
2022-09-07T13:04:59.708Z,11.88
2022-09-07T13:10:05.790Z,10.92
2022-09-07T13:15:22.507Z,11.61
2022-09-07T13:20:17.515Z,11.38
2022-09-07T13:25:23.931Z,10.41
2022-09-07T13:30:30.108Z,7.55
2022-09-07T13:35:36.142Z,9.13
2022-09-07T13:40:42.308Z,9.29
2022-09-07T13:45:48.673Z,12.19
2022-09-07T13:50:55.262Z,9.47
2022-09-07T13:56:01.450Z,9.53
2022-09-07T14:01:07.580Z,8.77
2022-09-07T14:06:13.874Z,11.36
2022-09-07T14:11:19.971Z,11.71
2022-09-07T14:16:26.281Z,10.95
2022-09-07T14:21:32.305Z,8.67
2022-09-07T14:26:38.568Z,9.94
2022-09-07T14:31:45.691Z,10.62
2022-09-07T14:36:50.901Z,8.57
2022-09-07T14:41:56.955Z,8.77
2022-09-07T14:47:03.298Z,8.43
2022-09-07T14:52:09.478Z,10.65
2022-09-07T14:57:15.637Z,10.13
2022-09-07T15:02:22.211Z,10.05
2022-09-07T15:07:28.229Z,9.49
2022-09-07T15:12:38.906Z,8.49
2022-09-07T15:17:43.700Z,5.73
2022-09-07T15:22:45.952Z,6.98
2022-09-07T15:27:51.505Z,7.34
2022-09-07T15:32:57.795Z,6.11
2022-09-07T15:38:05.398Z,5.86
2022-09-07T15:43:20.062Z,6.03
2022-09-07T15:48:15.635Z,7.15
2022-09-07T15:58:27.586Z,6.21
2022-09-07T16:03:34.374Z,6.67
2022-09-07T16:08:40.609Z,5.68
2022-09-07T16:13:47.045Z,4.78
2022-09-07T16:18:52.386Z,5.96
2022-09-07T16:23:58.547Z,4.86
2022-09-07T16:29:05.238Z,5.20
2022-09-07T16:34:11.391Z,5.43
2022-09-07T16:39:17.975Z,4.93
2022-09-07T16:44:24.454Z,5.76
2022-09-07T16:49:30.678Z,5.41
2022-09-07T16:54:36.800Z,5.69
2022-09-07T16:59:43.034Z,5.67
2022-09-07T17:04:49.102Z,4.94
2022-09-07T17:09:55.286Z,4.58
2022-09-07T17:15:01.440Z,4.56
2022-09-07T17:20:07.654Z,5.71
2022-09-07T17:25:14.233Z,6.64
2022-09-07T17:30:20.866Z,6.51
2022-09-07T17:35:26.763Z,5.15
2022-09-07T17:40:33.392Z,4.75
2022-09-07T17:45:39.470Z,5.56
2022-09-07T17:50:46.393Z,4.68
2022-09-07T17:55:52.800Z,4.73
2022-09-07T18:00:59.723Z,5.02
2022-09-07T18:06:05.253Z,4.51
2022-09-07T18:16:17.469Z,4.71
2022-09-07T18:21:23.709Z,4.62
2022-09-07T18:26:30.166Z,5.07
2022-09-07T18:31:36.897Z,4.08
2022-09-07T18:36:43.945Z,4.70
2022-09-07T18:41:48.861Z,9.74
2022-09-07T18:46:55.362Z,4.53
2022-09-07T18:57:07.319Z,5.08
2022-09-07T19:02:13.616Z,6.17
2022-09-07T19:07:19.696Z,5.57
2022-09-07T19:12:25.898Z,5.82
2022-09-07T19:17:32.027Z,5.30
2022-09-07T19:22:38.242Z,7.21
2022-09-07T19:27:44.507Z,6.35
2022-09-07T19:32:50.663Z,5.71
2022-09-07T19:37:57.160Z,7.09
2022-09-07T19:43:03.393Z,7.44
2022-09-07T19:48:09.520Z,6.03
2022-09-07T19:53:15.774Z,6.65
2022-09-07T19:58:21.833Z,6.45
2022-09-07T20:03:28.312Z,6.67
2022-09-07T20:08:34.336Z,7.39
2022-09-07T20:13:40.786Z,7.07
2022-09-07T20:18:46.836Z,6.65
2022-09-07T20:23:53.202Z,7.42
2022-09-07T20:29:16.809Z,7.17
2022-09-07T20:34:05.116Z,8.10
2022-09-07T20:39:11.525Z,8.57
2022-09-07T20:44:17.764Z,8.51
2022-09-07T20:49:23.975Z,8.69
2022-09-07T20:54:30.308Z,9.66
2022-09-07T20:59:36.689Z,12.64
2022-09-07T21:04:43.010Z,11.11
2022-09-07T21:09:49.125Z,12.12
2022-09-07T21:14:58.272Z,12.14
2022-09-07T21:20:04.321Z,12.52
2022-09-07T21:25:10.487Z,12.58
2022-09-07T21:30:16.943Z,13.91
2022-09-07T21:35:23.586Z,14.12
2022-09-07T21:40:29.777Z,13.74
2022-09-07T21:45:36.359Z,14.43
2022-09-07T21:50:42.475Z,15.15
2022-09-07T21:55:48.813Z,15.37
2022-09-07T22:00:55.166Z,15.43
2022-09-07T22:06:01.801Z,15.40
2022-09-07T22:11:08.343Z,16.18
2022-09-07T22:16:14.520Z,15.85
2022-09-07T22:21:20.573Z,16.46
2022-09-07T22:26:26.966Z,18.18
2022-09-07T22:31:33.150Z,18.81
2022-09-07T22:36:39.375Z,20.04
2022-09-07T22:41:45.782Z,19.39
2022-09-07T22:46:52.187Z,19.55
2022-09-07T22:51:58.308Z,19.54
2022-09-07T22:57:04.828Z,19.86
2022-09-07T23:02:10.888Z,21.09
2022-09-07T23:07:17.057Z,21.56
2022-09-07T23:12:23.177Z,22.46
2022-09-07T23:17:29.387Z,22.56
2022-09-07T23:22:35.896Z,22.67
2022-09-07T23:27:42.146Z,23.15
2022-09-07T23:32:49.120Z,22.79
2022-09-07T23:37:55.450Z,21.39
2022-09-07T23:43:01.547Z,21.65
2022-09-07T23:48:07.682Z,22.91
2022-09-07T23:53:13.893Z,21.75
2022-09-07T23:58:20.142Z,22.65
